Accueil
METAR-TAF:

METAR-TAF

Aéroports :

Koweït, Koweït

Aéroport international de Koweït

latitude: 29-13N, longitude: 047-59E, altitude: 55 m

Observation

Le bulletin a été fait il y a 7 minutes, à 08:00 UTC
Vent 8 kt de nord
Température 42°C
Humidité 10%
Pression 1006 hPa
Visibilité: 6000 m
Ciel clair

METAR: OKBK 270800Z 35008KT 6000 SKC 42/04 Q1006 NOSIG

Heure: 11:07 (08:07 UTC)

Prévision

Le bulletin a été fait il y a 3 heures et 22 minutes, à 04:45 UTC
Prévision valable du 27 à 06 UTC au 28 à 12 UTC
Vent 8 kt de nord/nord-ouest avec des rafales jusqu'à 18 kt
Visibilité: 7000 m

TAF: OKBK 270445Z 2706/2812 34008G18KT 7000 NSC

Observations et prévisions météorologiques de plus de 4000 aéroports (messages METAR et TAF).

Les stations disponibles sont représentées par des disques jaunes et rouges sur la carte.

Passer la souris dessus pour voir le nom de la station.

Cliquer dessus pour voir les observations et prévisions météorologiques.

Pour changer de carte: cliquez sur les boutons verts avec une croix noire pour zoomer, sur le bouton vert avec un tiret pour effectuer un zoom arrière, ou sur les flèches vertes pour les cartes adjacentes.


METAR-TAF: